Terminal Aerodrome Forecast
Issued by NWS

Home | Current Version | Previous Version | Text Only | Print | Product List | Glossary On
Versions: 1 2 3 4 5 6 7 8 9 10 11 12
000
FTUS41 KBTV 300533
TAFRUT
TAF
KRUT 300533Z 3006/3106 13005KT P6SM OVC150
     FM301400 27005KT P6SM BKN100
     FM310000 14004KT P6SM BKN100
      AMD LTD TO CLD VIS AND WIND=

USA.gov is the U.S. government's official web portal to all federal, state and local government web resources and services.